createdAt,value
2018-01-25T00:02:14.683Z,1.63
2018-01-25T00:04:41.628Z,1.40
2018-01-25T00:07:08.123Z,1.57
2018-01-25T00:09:35.385Z,1.60
2018-01-25T00:12:01.895Z,1.60
2018-01-25T00:14:28.412Z,1.43
2018-01-25T00:16:56.088Z,1.60
2018-01-25T00:19:23.450Z,1.77
2018-01-25T00:21:50.383Z,1.60
2018-01-25T00:24:17.786Z,1.50
2018-01-25T00:26:44.326Z,1.00
2018-01-25T00:29:10.864Z,1.43
2018-01-25T00:31:37.501Z,1.10
2018-01-25T00:34:04.157Z,1.00
2018-01-25T00:36:31.009Z,1.00
2018-01-25T00:38:58.421Z,1.10
2018-01-25T00:41:25.309Z,1.10
2018-01-25T00:43:52.675Z,1.10
2018-01-25T00:46:20.235Z,1.03
2018-01-25T00:48:46.893Z,1.20
2018-01-25T00:51:13.328Z,1.10
2018-01-25T00:53:40.098Z,1.20
2018-01-25T00:56:07.376Z,1.07
2018-01-25T00:58:33.929Z,1.10
2018-01-25T01:01:01.859Z,1.33
2018-01-25T01:03:28.362Z,0.90
2018-01-25T01:05:55.612Z,1.00
2018-01-25T01:08:22.134Z,1.10
2018-01-25T01:10:49.093Z,1.30
2018-01-25T01:13:16.114Z,1.10
2018-01-25T01:15:43.923Z,1.10
2018-01-25T01:18:11.469Z,1.30
2018-01-25T01:20:37.969Z,1.60
2018-01-25T01:23:05.401Z,1.07
2018-01-25T01:25:32.742Z,1.00
2018-01-25T01:27:59.994Z,1.00
2018-01-25T01:30:27.195Z,1.20
2018-01-25T01:32:53.726Z,1.17
2018-01-25T01:35:20.256Z,0.90
2018-01-25T01:37:48.028Z,1.10
2018-01-25T01:40:14.629Z,1.33
2018-01-25T01:42:41.269Z,1.20
2018-01-25T01:45:08.721Z,1.20
2018-01-25T01:47:36.008Z,1.50
2018-01-25T01:50:02.545Z,1.20
2018-01-25T01:52:29.718Z,1.23
2018-01-25T01:54:56.991Z,1.27
2018-01-25T01:57:24.274Z,1.07
2018-01-25T01:59:51.828Z,1.07
2018-01-25T02:02:18.389Z,1.00
2018-01-25T02:04:45.635Z,1.30
2018-01-25T02:07:12.128Z,1.30
2018-01-25T02:09:39.482Z,1.30
2018-01-25T02:12:05.967Z,1.23
2018-01-25T02:14:32.577Z,1.20
2018-01-25T02:16:59.358Z,1.10
2018-01-25T02:19:27.048Z,1.10
2018-01-25T02:21:53.964Z,1.10
2018-01-25T02:24:22.073Z,1.20
2018-01-25T02:26:48.570Z,1.10
2018-01-25T02:29:16.543Z,1.30
2018-01-25T02:31:43.505Z,1.40
2018-01-25T02:34:10.068Z,1.30
2018-01-25T02:36:38.230Z,1.27
2018-01-25T02:39:05.149Z,2.00
2018-01-25T02:41:31.605Z,2.53
2018-01-25T02:43:59.133Z,2.33
2018-01-25T02:46:26.014Z,2.40
2018-01-25T02:48:52.909Z,2.90
2018-01-25T02:51:19.452Z,2.40
2018-01-25T02:53:46.668Z,2.60
2018-01-25T02:56:13.165Z,2.40
2018-01-25T02:58:39.734Z,2.63
2018-01-25T03:01:06.222Z,2.37
2018-01-25T03:03:33.280Z,2.37
2018-01-25T03:06:00.840Z,2.10
2018-01-25T03:08:27.362Z,2.00
2018-01-25T03:10:53.892Z,1.90
2018-01-25T03:13:20.425Z,2.40
2018-01-25T03:15:46.959Z,1.70
2018-01-25T03:18:14.339Z,2.10
2018-01-25T03:20:41.139Z,1.53
2018-01-25T03:23:08.392Z,1.70
2018-01-25T03:25:35.052Z,1.97
2018-01-25T03:28:01.792Z,2.23
2018-01-25T03:30:29.927Z,2.10
2018-01-25T03:32:56.637Z,2.63
2018-01-25T03:35:23.541Z,2.47
2018-01-25T03:37:50.448Z,2.00
2018-01-25T03:40:17.061Z,2.30
2018-01-25T03:42:44.551Z,2.13
2018-01-25T03:48:10.807Z,1.70
2018-01-25T03:50:37.351Z,2.30
2018-01-25T03:53:03.842Z,1.80
2018-01-25T03:55:30.752Z,2.13
2018-01-25T03:57:57.222Z,1.93
2018-01-25T04:00:23.805Z,2.10
2018-01-25T04:02:52.952Z,1.57
2018-01-25T04:05:20.406Z,1.87
2018-01-25T04:07:46.910Z,2.03
2018-01-25T04:10:14.557Z,2.47
2018-01-25T04:12:41.112Z,2.20
2018-01-25T04:15:07.638Z,2.23
2018-01-25T04:17:34.517Z,2.40
2018-01-25T04:20:01.055Z,2.63
2018-01-25T04:22:27.578Z,2.00
2018-01-25T04:24:54.276Z,3.83
2018-01-25T04:27:22.261Z,2.03
2018-01-25T04:29:48.805Z,2.23
2018-01-25T04:32:15.783Z,2.57
2018-01-25T04:34:43.183Z,2.03
2018-01-25T04:37:09.616Z,2.30
2018-01-25T04:39:36.333Z,2.17
2018-01-25T04:42:02.782Z,2.30
2018-01-25T04:44:29.375Z,2.20
2018-01-25T04:46:57.021Z,2.50
2018-01-25T04:49:23.528Z,2.20
2018-01-25T04:51:50.112Z,2.10
2018-01-25T04:54:16.916Z,2.93
2018-01-25T04:56:43.393Z,2.50
2018-01-25T04:59:10.309Z,2.73
2018-01-25T05:01:36.944Z,2.07
2018-01-25T05:04:03.908Z,2.03
2018-01-25T05:06:32.162Z,2.40
2018-01-25T05:08:58.689Z,2.83
2018-01-25T05:11:25.162Z,2.83
2018-01-25T05:13:51.652Z,2.97
2018-01-25T05:16:18.981Z,2.27
2018-01-25T05:18:46.648Z,2.80
2018-01-25T05:21:13.219Z,3.47
2018-01-25T05:23:40.555Z,3.30
2018-01-25T05:26:07.109Z,2.80
2018-01-25T05:28:34.243Z,2.77
2018-01-25T05:33:35.732Z,2.50
2018-01-25T05:36:02.375Z,2.00
2018-01-25T05:38:29.518Z,2.47
2018-01-25T05:40:56.434Z,3.20
2018-01-25T05:43:25.385Z,2.00
2018-01-25T05:45:52.556Z,1.80
2018-01-25T05:48:19.079Z,2.37
2018-01-25T05:50:47.880Z,2.50
2018-01-25T05:53:17.854Z,2.47
2018-01-25T05:55:44.407Z,2.27
2018-01-25T05:58:12.074Z,1.77
2018-01-25T06:00:40.516Z,2.03
2018-01-25T06:03:07.792Z,2.03
2018-01-25T06:05:35.052Z,2.20
2018-01-25T06:08:06.469Z,2.67
2018-01-25T06:10:34.033Z,2.20
2018-01-25T06:13:02.718Z,2.77
2018-01-25T06:18:06.377Z,2.37
2018-01-25T06:20:34.547Z,2.60
2018-01-25T06:23:02.640Z,1.80
2018-01-25T06:25:29.320Z,2.33
2018-01-25T06:27:55.789Z,3.53
2018-01-25T06:30:23.072Z,2.13
2018-01-25T06:32:49.972Z,3.30
2018-01-25T06:35:17.328Z,2.77
2018-01-25T06:37:44.398Z,2.40
2018-01-25T06:40:11.314Z,2.17
2018-01-25T06:42:38.233Z,2.50
2018-01-25T06:45:05.260Z,2.53
2018-01-25T06:47:33.614Z,2.20
2018-01-25T06:50:00.856Z,2.30
2018-01-25T06:52:28.269Z,2.67
2018-01-25T06:54:55.310Z,1.97
2018-01-25T06:57:22.537Z,2.20
2018-01-25T06:59:49.756Z,2.37
2018-01-25T07:02:16.695Z,2.57
2018-01-25T07:04:43.254Z,2.10
2018-01-25T07:07:09.686Z,2.67
2018-01-25T07:09:37.305Z,2.70
2018-01-25T07:12:03.826Z,2.53
2018-01-25T07:14:31.785Z,3.47
2018-01-25T07:16:59.139Z,3.37
2018-01-25T07:19:26.084Z,2.40
2018-01-25T07:21:52.568Z,3.90
2018-01-25T07:24:19.243Z,3.60
2018-01-25T07:26:46.089Z,3.20
2018-01-25T07:29:12.659Z,2.80
2018-01-25T07:31:39.216Z,5.17
2018-01-25T07:34:07.668Z,2.70
2018-01-25T07:36:35.138Z,2.77
2018-01-25T07:39:03.153Z,4.03
2018-01-25T07:41:29.649Z,3.13
2018-01-25T07:43:56.957Z,2.60
2018-01-25T07:46:23.494Z,3.40
2018-01-25T07:48:50.470Z,3.60
2018-01-25T07:51:17.385Z,3.40
2018-01-25T07:53:44.596Z,4.10
2018-01-25T07:56:11.214Z,4.20
2018-01-25T07:58:37.736Z,3.70
2018-01-25T08:01:05.499Z,4.07
2018-01-25T08:03:32.900Z,3.30
2018-01-25T08:06:00.280Z,3.87
2018-01-25T08:08:26.827Z,3.50
2018-01-25T08:10:53.428Z,3.60
2018-01-25T08:13:26.072Z,3.50
2018-01-25T08:15:52.816Z,5.30
2018-01-25T08:18:20.069Z,3.77
2018-01-25T08:20:46.772Z,3.37
2018-01-25T08:23:13.501Z,3.90
2018-01-25T08:25:40.384Z,4.00
2018-01-25T08:28:07.741Z,4.30
2018-01-25T08:30:34.238Z,5.20
2018-01-25T08:33:00.951Z,3.30
2018-01-25T08:35:27.956Z,3.77
2018-01-25T08:37:54.394Z,3.30
2018-01-25T08:40:20.886Z,3.70
2018-01-25T08:42:47.333Z,5.90
2018-01-25T08:45:14.757Z,4.43
2018-01-25T08:47:41.754Z,5.70
2018-01-25T08:50:08.603Z,4.80
2018-01-25T08:52:35.884Z,6.97
2018-01-25T08:55:02.384Z,6.80
2018-01-25T08:57:28.859Z,5.40
2018-01-25T08:59:56.336Z,5.87
2018-01-25T09:02:22.880Z,5.20
2018-01-25T09:04:50.240Z,5.27
2018-01-25T09:07:18.595Z,8.50
2018-01-25T09:09:45.137Z,5.27
2018-01-25T09:12:13.411Z,6.60
2018-01-25T09:14:41.841Z,6.00
2018-01-25T09:17:08.354Z,7.63
2018-01-25T09:19:36.396Z,6.27
2018-01-25T09:22:03.684Z,5.20
2018-01-25T09:24:30.517Z,5.73
2018-01-25T09:26:57.023Z,5.00
2018-01-25T09:29:23.874Z,5.63
2018-01-25T09:31:50.483Z,5.47
2018-01-25T09:34:17.008Z,4.57
2018-01-25T09:36:44.451Z,4.87
2018-01-25T09:39:11.033Z,5.00
2018-01-25T09:41:38.340Z,5.50
2018-01-25T09:44:04.862Z,5.30
2018-01-25T09:46:31.457Z,5.07
2018-01-25T09:48:58.096Z,5.20
2018-01-25T09:51:25.555Z,5.27
2018-01-25T09:53:52.363Z,4.80
2018-01-25T09:56:19.239Z,5.30
2018-01-25T09:58:47.156Z,5.50
2018-01-25T10:01:13.679Z,6.00
2018-01-25T10:03:40.125Z,5.57
2018-01-25T10:06:07.903Z,5.50
2018-01-25T10:08:36.100Z,4.67
2018-01-25T10:11:02.646Z,5.60
2018-01-25T10:13:31.953Z,4.67
2018-01-25T10:15:58.800Z,4.50
2018-01-25T10:18:26.953Z,4.83
2018-01-25T10:20:53.637Z,6.03
2018-01-25T10:23:20.157Z,5.47
2018-01-25T10:25:46.798Z,5.50
2018-01-25T10:28:14.295Z,4.53
2018-01-25T10:30:40.759Z,5.40
2018-01-25T10:33:08.671Z,5.10
2018-01-25T10:35:35.189Z,4.80
2018-01-25T10:38:01.692Z,3.80
2018-01-25T10:40:28.958Z,3.40
2018-01-25T10:42:55.567Z,3.87
2018-01-25T10:45:22.448Z,5.07
2018-01-25T10:47:49.617Z,5.17
2018-01-25T10:50:16.264Z,3.90
2018-01-25T10:52:43.114Z,4.07
2018-01-25T10:55:09.584Z,3.40
2018-01-25T10:57:36.272Z,4.30
2018-01-25T11:00:02.997Z,3.90
2018-01-25T11:02:29.589Z,3.63
2018-01-25T11:04:56.704Z,3.77
2018-01-25T11:07:23.609Z,4.10
2018-01-25T11:09:50.930Z,4.10
2018-01-25T11:12:18.011Z,3.80
2018-01-25T11:14:47.690Z,4.10
2018-01-25T11:17:14.578Z,3.40
2018-01-25T11:19:42.059Z,4.50
2018-01-25T11:22:08.563Z,3.20
2018-01-25T11:24:35.069Z,3.40
2018-01-25T11:27:02.004Z,3.47
2018-01-25T11:29:29.606Z,4.20
2018-01-25T11:31:57.277Z,4.83
2018-01-25T11:34:24.969Z,5.40
2018-01-25T11:36:51.488Z,6.50
2018-01-25T11:39:18.417Z,4.63
2018-01-25T11:41:45.392Z,4.20
2018-01-25T11:44:12.227Z,2.80
2018-01-25T11:46:38.697Z,2.70
2018-01-25T11:49:05.968Z,3.03
2018-01-25T11:51:32.457Z,3.20
2018-01-25T11:53:59.060Z,2.97
2018-01-25T11:56:27.307Z,3.00
2018-01-25T11:58:53.775Z,11.67
2018-01-25T12:01:21.389Z,2.70
2018-01-25T12:03:49.023Z,2.40
2018-01-25T12:06:15.499Z,2.83
2018-01-25T12:08:42.740Z,3.13
2018-01-25T12:11:09.761Z,2.60
2018-01-25T12:13:36.725Z,3.50
2018-01-25T12:16:03.684Z,4.50
2018-01-25T12:18:31.178Z,3.80
2018-01-25T12:20:58.506Z,4.10
2018-01-25T12:23:24.996Z,4.63
2018-01-25T12:25:51.614Z,3.40
2018-01-25T12:28:18.201Z,3.83
2018-01-25T12:30:45.531Z,3.67
2018-01-25T12:33:12.839Z,2.90
2018-01-25T12:35:41.056Z,3.20
2018-01-25T12:38:08.685Z,3.50
2018-01-25T12:40:35.663Z,3.73
2018-01-25T12:43:02.528Z,3.70
2018-01-25T12:45:29.693Z,4.43
2018-01-25T12:47:57.666Z,3.17
2018-01-25T12:50:25.070Z,3.20
2018-01-25T12:52:51.648Z,3.53
2018-01-25T12:55:19.606Z,2.70
2018-01-25T12:57:47.811Z,5.60
2018-01-25T13:00:15.139Z,4.10
2018-01-25T13:02:41.717Z,3.80
2018-01-25T13:05:08.134Z,3.37
2018-01-25T13:10:08.571Z,3.10
2018-01-25T13:12:35.096Z,4.07
2018-01-25T13:15:05.020Z,4.60
2018-01-25T13:17:32.442Z,4.47
2018-01-25T13:20:00.630Z,4.60
2018-01-25T13:22:27.226Z,4.30
2018-01-25T13:24:54.857Z,3.90
2018-01-25T13:27:21.377Z,3.83
2018-01-25T13:29:50.232Z,3.73
2018-01-25T13:32:19.392Z,4.00
2018-01-25T13:34:46.379Z,3.47
2018-01-25T13:37:14.577Z,3.90
2018-01-25T13:39:41.861Z,4.40
2018-01-25T13:42:09.204Z,3.60
2018-01-25T13:44:36.070Z,2.83
2018-01-25T13:47:03.899Z,4.30
2018-01-25T13:49:31.153Z,3.10
2018-01-25T13:51:58.507Z,3.60
2018-01-25T13:54:25.631Z,4.07
2018-01-25T13:56:53.325Z,3.90
2018-01-25T13:59:20.584Z,3.27
2018-01-25T14:01:48.051Z,4.27
2018-01-25T14:04:14.586Z,3.10
2018-01-25T14:06:41.120Z,4.10
2018-01-25T14:09:08.222Z,3.93
2018-01-25T14:11:35.247Z,3.10
2018-01-25T14:14:02.161Z,3.70
2018-01-25T14:16:28.993Z,3.60
2018-01-25T14:18:56.344Z,4.07
2018-01-25T14:21:23.786Z,3.43
2018-01-25T14:23:50.549Z,3.03
2018-01-25T14:26:17.799Z,2.63
2018-01-25T14:28:44.342Z,3.00
2018-01-25T14:31:12.469Z,3.50
2018-01-25T14:33:40.665Z,3.07
2018-01-25T14:36:07.192Z,3.37
2018-01-25T14:38:34.623Z,3.77
2018-01-25T14:41:02.899Z,3.50
2018-01-25T14:43:30.186Z,3.80
2018-01-25T14:45:56.751Z,4.13
2018-01-25T14:48:24.071Z,3.17
2018-01-25T14:50:50.768Z,3.67
2018-01-25T14:53:17.170Z,4.10
2018-01-25T14:55:43.631Z,3.90
2018-01-25T14:58:11.899Z,3.90
2018-01-25T15:00:40.202Z,4.17
2018-01-25T15:03:07.236Z,3.00
2018-01-25T15:05:33.722Z,4.90
2018-01-25T15:08:01.634Z,3.20
2018-01-25T15:10:28.201Z,4.13
2018-01-25T15:12:54.956Z,4.17
2018-01-25T15:15:22.330Z,4.70
2018-01-25T15:17:50.489Z,6.80
2018-01-25T15:20:17.908Z,7.10
2018-01-25T15:22:44.801Z,7.77
2018-01-25T15:25:19.156Z,5.97
2018-01-25T15:27:46.322Z,5.17
2018-01-25T15:30:12.910Z,4.90
2018-01-25T15:32:40.963Z,12.03
2018-01-25T15:35:07.966Z,4.60
2018-01-25T15:37:35.207Z,4.80
2018-01-25T15:40:02.346Z,4.47
2018-01-25T15:42:28.924Z,6.03
2018-01-25T15:44:55.706Z,5.57
2018-01-25T15:47:22.716Z,7.67
2018-01-25T15:49:49.604Z,5.30
2018-01-25T15:52:17.862Z,8.40
2018-01-25T15:54:44.362Z,8.37
2018-01-25T15:57:11.958Z,4.30
2018-01-25T15:59:38.524Z,4.90
2018-01-25T16:02:05.084Z,4.40
2018-01-25T16:04:33.270Z,4.53
2018-01-25T16:07:01.537Z,5.57
2018-01-25T16:09:29.752Z,5.97
2018-01-25T16:11:57.228Z,4.90
2018-01-25T16:14:24.554Z,5.20
2018-01-25T16:16:52.536Z,6.57
2018-01-25T16:19:19.981Z,5.77
2018-01-25T16:21:47.718Z,5.87
2018-01-25T16:24:14.218Z,6.03
2018-01-25T16:26:40.925Z,6.10
2018-01-25T16:29:09.267Z,6.23
2018-01-25T16:31:40.024Z,6.03
2018-01-25T16:34:07.242Z,5.60
2018-01-25T16:36:34.625Z,6.27
2018-01-25T16:39:01.245Z,6.27
2018-01-25T16:41:28.663Z,5.77
2018-01-25T16:43:56.530Z,6.27
2018-01-25T16:46:24.056Z,6.00
2018-01-25T16:48:51.133Z,6.23
2018-01-25T16:51:17.814Z,6.30
2018-01-25T16:53:46.038Z,6.17
2018-01-25T16:56:12.565Z,5.47
2018-01-25T16:58:39.214Z,5.60
2018-01-25T17:01:05.780Z,6.77
2018-01-25T17:03:32.862Z,6.53
2018-01-25T17:06:00.184Z,6.90
2018-01-25T17:08:27.132Z,6.50
2018-01-25T17:10:54.663Z,7.60
2018-01-25T17:13:21.452Z,7.50
2018-01-25T17:15:47.995Z,7.27
2018-01-25T17:18:14.618Z,7.10
2018-01-25T17:20:41.137Z,7.20
2018-01-25T17:23:08.185Z,7.57
2018-01-25T17:25:35.980Z,8.37
2018-01-25T17:28:03.722Z,7.80
2018-01-25T17:30:31.950Z,8.10
2018-01-25T17:32:59.262Z,7.93
2018-01-25T17:35:26.230Z,8.50
2018-01-25T17:37:53.516Z,6.50
2018-01-25T17:40:21.367Z,7.33
2018-01-25T17:42:49.943Z,9.00
2018-01-25T17:45:16.948Z,6.03
2018-01-25T17:47:44.266Z,6.63
2018-01-25T17:50:10.792Z,8.70
2018-01-25T17:52:38.335Z,7.63
2018-01-25T17:55:05.387Z,8.90
2018-01-25T17:57:32.022Z,8.90
2018-01-25T17:59:59.352Z,8.30
2018-01-25T18:02:26.804Z,9.40
2018-01-25T18:04:55.317Z,7.83
2018-01-25T18:07:23.000Z,8.97
2018-01-25T18:09:50.145Z,7.70
2018-01-25T18:12:18.454Z,6.60
2018-01-25T18:14:46.172Z,8.50
2018-01-25T18:17:13.169Z,7.47
2018-01-25T18:19:40.098Z,8.27
2018-01-25T18:22:07.412Z,7.70
2018-01-25T18:24:36.887Z,9.00
2018-01-25T18:27:03.750Z,8.60
2018-01-25T18:29:31.762Z,6.83
2018-01-25T18:31:58.438Z,8.30
2018-01-25T18:34:25.062Z,7.50
2018-01-25T18:36:52.473Z,7.60
2018-01-25T18:39:19.206Z,6.70
2018-01-25T18:41:46.206Z,7.97
2018-01-25T18:44:12.913Z,7.53
2018-01-25T18:46:40.430Z,8.00
2018-01-25T18:49:07.316Z,7.67
2018-01-25T18:51:33.830Z,7.50
2018-01-25T18:54:00.445Z,7.40
2018-01-25T18:56:27.776Z,9.40
2018-01-25T18:58:54.331Z,7.80
2018-01-25T19:01:23.276Z,8.27
2018-01-25T19:03:50.557Z,8.67
2018-01-25T19:06:17.422Z,9.10
2018-01-25T19:08:44.709Z,8.80
2018-01-25T19:11:11.973Z,8.00
2018-01-25T19:13:39.284Z,8.67
2018-01-25T19:16:06.024Z,8.50
2018-01-25T19:18:34.324Z,9.47
2018-01-25T19:21:01.373Z,8.90
2018-01-25T19:23:29.398Z,8.70
2018-01-25T19:25:55.930Z,8.00
2018-01-25T19:28:24.676Z,8.33
2018-01-25T19:30:52.233Z,9.20
2018-01-25T19:33:19.424Z,8.57
2018-01-25T19:35:45.925Z,9.20
2018-01-25T19:38:15.597Z,8.50
2018-01-25T19:40:42.281Z,9.20
2018-01-25T19:43:10.412Z,9.73
2018-01-25T19:45:39.543Z,8.07
2018-01-25T19:48:06.790Z,8.20
2018-01-25T19:50:33.991Z,8.93
2018-01-25T19:53:01.089Z,8.50
2018-01-25T19:55:28.539Z,9.00
2018-01-25T19:57:57.018Z,9.20
2018-01-25T20:00:25.464Z,10.27
2018-01-25T20:02:53.203Z,8.70
2018-01-25T20:05:21.522Z,9.80
2018-01-25T20:07:48.192Z,9.30
2018-01-25T20:10:15.148Z,9.90
2018-01-25T20:12:42.468Z,8.70
2018-01-25T20:15:09.772Z,9.20
2018-01-25T20:17:37.905Z,9.63
2018-01-25T20:20:05.590Z,8.23
2018-01-25T20:22:32.753Z,8.90
2018-01-25T20:24:59.331Z,9.47
2018-01-25T20:27:27.503Z,10.00
2018-01-25T20:29:54.385Z,9.73
2018-01-25T20:32:22.230Z,10.03
2018-01-25T20:34:49.626Z,10.70
2018-01-25T20:37:16.488Z,9.77
2018-01-25T20:39:43.794Z,8.43
2018-01-25T20:42:11.434Z,9.90
2018-01-25T20:44:38.144Z,9.57
2018-01-25T20:47:04.731Z,10.57
2018-01-25T20:49:31.255Z,8.80
2018-01-25T20:51:57.829Z,10.07
2018-01-25T20:54:25.582Z,11.23
2018-01-25T20:56:52.131Z,10.20
2018-01-25T20:59:19.076Z,13.70
2018-01-25T21:01:45.680Z,9.67
2018-01-25T21:04:12.220Z,12.27
2018-01-25T21:06:38.926Z,9.30
2018-01-25T21:09:06.138Z,10.73
2018-01-25T21:11:33.819Z,10.50
2018-01-25T21:14:00.432Z,11.77
2018-01-25T21:16:27.532Z,10.67
2018-01-25T21:18:54.532Z,11.40
2018-01-25T21:21:21.623Z,11.90
2018-01-25T21:23:48.177Z,10.90
2018-01-25T21:26:15.040Z,10.93
2018-01-25T21:28:43.004Z,11.90
2018-01-25T21:31:09.576Z,11.57
2018-01-25T21:33:36.153Z,11.13
2018-01-25T21:36:03.652Z,13.70
2018-01-25T21:38:31.270Z,13.80
2018-01-25T21:40:58.644Z,12.50
2018-01-25T21:43:28.414Z,10.37
2018-01-25T21:45:55.751Z,11.40
2018-01-25T21:48:23.104Z,10.50
2018-01-25T21:50:49.943Z,11.47
2018-01-25T21:53:16.665Z,11.53
2018-01-25T21:55:43.537Z,11.37
2018-01-25T21:58:11.009Z,10.70
2018-01-25T22:00:38.074Z,12.33
2018-01-25T22:03:06.323Z,11.63
2018-01-25T22:05:33.693Z,10.97
2018-01-25T22:08:00.582Z,10.97
2018-01-25T22:10:29.237Z,11.47
2018-01-25T22:12:55.772Z,10.90
2018-01-25T22:15:23.148Z,11.57
2018-01-25T22:17:50.707Z,12.07
2018-01-25T22:20:18.944Z,11.80
2018-01-25T22:22:45.749Z,21.37
2018-01-25T22:25:13.635Z,16.00
2018-01-25T22:27:40.245Z,13.07
2018-01-25T22:30:06.912Z,10.73
2018-01-25T22:32:34.633Z,11.10
2018-01-25T22:35:02.626Z,11.20
2018-01-25T22:37:29.361Z,10.23
2018-01-25T22:39:56.267Z,10.30
2018-01-25T22:42:24.496Z,10.13
2018-01-25T22:44:51.152Z,12.03
2018-01-25T22:47:18.130Z,12.03
2018-01-25T22:49:45.985Z,12.83
2018-01-25T22:52:13.296Z,9.23
2018-01-25T22:54:40.124Z,12.17
2018-01-25T22:57:07.465Z,11.00
2018-01-25T22:59:34.840Z,9.80
2018-01-25T23:02:01.578Z,11.57
2018-01-25T23:04:28.656Z,11.97
2018-01-25T23:06:56.344Z,9.20
2018-01-25T23:09:23.023Z,11.90
2018-01-25T23:11:49.680Z,12.97
2018-01-25T23:14:16.644Z,11.70
2018-01-25T23:16:43.301Z,10.33
2018-01-25T23:19:10.124Z,9.73
2018-01-25T23:21:36.618Z,9.70
2018-01-25T23:24:03.181Z,10.73
2018-01-25T23:26:30.050Z,12.80
2018-01-25T23:28:56.690Z,9.77
2018-01-25T23:31:23.462Z,10.03
2018-01-25T23:33:50.053Z,9.90
2018-01-25T23:36:16.647Z,9.40
2018-01-25T23:38:44.251Z,9.87
2018-01-25T23:41:10.843Z,10.50
2018-01-25T23:43:37.365Z,10.30
2018-01-25T23:46:03.890Z,10.93
2018-01-25T23:48:30.575Z,10.63
2018-01-25T23:50:57.117Z,10.97
2018-01-25T23:53:23.689Z,10.73
2018-01-25T23:55:50.293Z,10.27
2018-01-25T23:58:16.923Z,9.37
